sensor_id;sensor_type;location;lat;lon;timestamp;P1;durP1;ratioP1;P2;durP2;ratioP2
7759;SDS011;3924;48.830;9.262;2023-12-07T00:02:22;2.00;;;1.87;;
7759;SDS011;3924;48.830;9.262;2023-12-07T00:04:49;2.90;;;1.80;;
7759;SDS011;3924;48.830;9.262;2023-12-07T00:07:15;2.77;;;2.57;;
7759;SDS011;3924;48.830;9.262;2023-12-07T00:09:42;1.53;;;1.37;;
7759;SDS011;3924;48.830;9.262;2023-12-07T00:12:08;2.43;;;2.23;;
7759;SDS011;3924;48.830;9.262;2023-12-07T00:14:35;3.70;;;2.53;;
7759;SDS011;3924;48.830;9.262;2023-12-07T00:17:02;2.57;;;2.27;;
7759;SDS011;3924;48.830;9.262;2023-12-07T00:19:29;1.63;;;1.50;;
7759;SDS011;3924;48.830;9.262;2023-12-07T00:21:56;2.00;;;1.90;;
7759;SDS011;3924;48.830;9.262;2023-12-07T00:24:23;8.00;;;1.70;;
7759;SDS011;3924;48.830;9.262;2023-12-07T00:26:49;2.60;;;1.73;;
7759;SDS011;3924;48.830;9.262;2023-12-07T00:29:16;1.83;;;1.73;;
7759;SDS011;3924;48.830;9.262;2023-12-07T00:31:43;4.17;;;2.43;;
7759;SDS011;3924;48.830;9.262;2023-12-07T00:34:10;3.00;;;2.70;;
7759;SDS011;3924;48.830;9.262;2023-12-07T00:36:37;2.13;;;1.63;;
7759;SDS011;3924;48.830;9.262;2023-12-07T00:39:06;3.90;;;2.70;;
7759;SDS011;3924;48.830;9.262;2023-12-07T00:41:32;5.30;;;2.63;;
7759;SDS011;3924;48.830;9.262;2023-12-07T00:43:59;2.73;;;2.50;;
7759;SDS011;3924;48.830;9.262;2023-12-07T00:46:26;3.43;;;2.50;;
7759;SDS011;3924;48.830;9.262;2023-12-07T00:48:53;2.53;;;2.33;;
7759;SDS011;3924;48.830;9.262;2023-12-07T00:51:19;2.20;;;2.10;;
7759;SDS011;3924;48.830;9.262;2023-12-07T00:53:46;3.60;;;2.50;;
7759;SDS011;3924;48.830;9.262;2023-12-07T00:56:12;2.53;;;2.17;;
7759;SDS011;3924;48.830;9.262;2023-12-07T00:58:39;2.53;;;1.90;;
7759;SDS011;3924;48.830;9.262;2023-12-07T01:01:06;2.37;;;1.83;;
7759;SDS011;3924;48.830;9.262;2023-12-07T01:03:32;2.77;;;2.13;;
7759;SDS011;3924;48.830;9.262;2023-12-07T01:05:59;2.67;;;1.93;;
7759;SDS011;3924;48.830;9.262;2023-12-07T01:08:26;2.03;;;1.80;;
7759;SDS011;3924;48.830;9.262;2023-12-07T01:10:52;1.13;;;1.07;;
7759;SDS011;3924;48.830;9.262;2023-12-07T01:13:19;2.07;;;1.93;;
7759;SDS011;3924;48.830;9.262;2023-12-07T01:15:45;2.90;;;1.73;;
7759;SDS011;3924;48.830;9.262;2023-12-07T01:18:12;2.47;;;1.90;;
7759;SDS011;3924;48.830;9.262;2023-12-07T01:20:38;1.83;;;1.70;;
7759;SDS011;3924;48.830;9.262;2023-12-07T01:23:05;3.10;;;2.07;;
7759;SDS011;3924;48.830;9.262;2023-12-07T01:25:31;2.37;;;1.87;;
7759;SDS011;3924;48.830;9.262;2023-12-07T01:27:58;2.97;;;2.47;;
7759;SDS011;3924;48.830;9.262;2023-12-07T01:30:25;5.50;;;2.60;;
7759;SDS011;3924;48.830;9.262;2023-12-07T01:32:52;2.67;;;2.47;;
7759;SDS011;3924;48.830;9.262;2023-12-07T01:35:18;2.47;;;1.90;;
7759;SDS011;3924;48.830;9.262;2023-12-07T01:37:45;2.63;;;2.10;;
7759;SDS011;3924;48.830;9.262;2023-12-07T01:40:11;7.00;;;3.30;;
7759;SDS011;3924;48.830;9.262;2023-12-07T01:42:38;2.53;;;2.33;;
7759;SDS011;3924;48.830;9.262;2023-12-07T01:45:05;1.63;;;1.53;;
7759;SDS011;3924;48.830;9.262;2023-12-07T01:47:33;8.73;;;2.27;;
7759;SDS011;3924;48.830;9.262;2023-12-07T01:50:02;3.60;;;2.47;;
7759;SDS011;3924;48.830;9.262;2023-12-07T01:52:34;2.07;;;1.87;;
7759;SDS011;3924;48.830;9.262;2023-12-07T01:55:04;2.10;;;2.00;;
7759;SDS011;3924;48.830;9.262;2023-12-07T01:57:33;3.67;;;1.90;;
7759;SDS011;3924;48.830;9.262;2023-12-07T02:00:00;2.50;;;2.30;;
7759;SDS011;3924;48.830;9.262;2023-12-07T02:02:26;2.10;;;2.00;;
7759;SDS011;3924;48.830;9.262;2023-12-07T02:04:53;2.23;;;2.03;;
7759;SDS011;3924;48.830;9.262;2023-12-07T02:07:21;3.20;;;2.17;;
7759;SDS011;3924;48.830;9.262;2023-12-07T02:09:49;2.20;;;1.97;;
7759;SDS011;3924;48.830;9.262;2023-12-07T02:12:16;3.37;;;2.27;;
7759;SDS011;3924;48.830;9.262;2023-12-07T02:14:44;1.83;;;1.73;;
7759;SDS011;3924;48.830;9.262;2023-12-07T02:17:16;2.13;;;1.90;;
7759;SDS011;3924;48.830;9.262;2023-12-07T02:19:49;2.83;;;2.53;;
7759;SDS011;3924;48.830;9.262;2023-12-07T02:22:34;4.00;;;2.70;;
7759;SDS011;3924;48.830;9.262;2023-12-07T02:25:32;2.00;;;1.83;;
7759;SDS011;3924;48.830;9.262;2023-12-07T02:28:03;3.97;;;2.47;;
7759;SDS011;3924;48.830;9.262;2023-12-07T02:30:30;2.57;;;2.27;;
7759;SDS011;3924;48.830;9.262;2023-12-07T02:32:56;2.37;;;2.13;;
7759;SDS011;3924;48.830;9.262;2023-12-07T02:35:23;2.20;;;2.00;;
7759;SDS011;3924;48.830;9.262;2023-12-07T02:37:51;3.17;;;2.87;;
7759;SDS011;3924;48.830;9.262;2023-12-07T02:40:22;2.80;;;2.40;;
7759;SDS011;3924;48.830;9.262;2023-12-07T02:42:52;8.97;;;2.00;;
7759;SDS011;3924;48.830;9.262;2023-12-07T02:45:20;3.20;;;2.97;;
7759;SDS011;3924;48.830;9.262;2023-12-07T02:47:47;2.70;;;2.30;;
7759;SDS011;3924;48.830;9.262;2023-12-07T02:50:14;3.43;;;3.10;;
7759;SDS011;3924;48.830;9.262;2023-12-07T02:52:41;2.43;;;1.83;;
7759;SDS011;3924;48.830;9.262;2023-12-07T02:55:08;4.47;;;2.73;;
7759;SDS011;3924;48.830;9.262;2023-12-07T02:57:35;1.83;;;1.73;;
7759;SDS011;3924;48.830;9.262;2023-12-07T03:00:03;1.63;;;1.53;;
7759;SDS011;3924;48.830;9.262;2023-12-07T03:02:37;2.73;;;2.53;;
7759;SDS011;3924;48.830;9.262;2023-12-07T03:05:05;1.90;;;1.80;;
7759;SDS011;3924;48.830;9.262;2023-12-07T03:07:33;4.73;;;2.53;;
7759;SDS011;3924;48.830;9.262;2023-12-07T03:10:00;3.83;;;2.73;;
7759;SDS011;3924;48.830;9.262;2023-12-07T03:12:27;2.70;;;2.23;;
7759;SDS011;3924;48.830;9.262;2023-12-07T03:14:54;2.90;;;2.70;;
7759;SDS011;3924;48.830;9.262;2023-12-07T03:17:20;2.77;;;2.57;;
7759;SDS011;3924;48.830;9.262;2023-12-07T03:19:47;2.03;;;1.93;;
7759;SDS011;3924;48.830;9.262;2023-12-07T03:22:13;2.80;;;2.30;;
7759;SDS011;3924;48.830;9.262;2023-12-07T03:24:40;2.97;;;2.67;;
7759;SDS011;3924;48.830;9.262;2023-12-07T03:27:11;2.27;;;2.13;;
7759;SDS011;3924;48.830;9.262;2023-12-07T03:29:38;2.47;;;2.27;;
7759;SDS011;3924;48.830;9.262;2023-12-07T03:32:05;3.17;;;2.53;;
7759;SDS011;3924;48.830;9.262;2023-12-07T03:34:32;1.63;;;1.63;;
7759;SDS011;3924;48.830;9.262;2023-12-07T03:36:58;4.70;;;2.80;;
7759;SDS011;3924;48.830;9.262;2023-12-07T03:39:25;1.67;;;1.63;;
7759;SDS011;3924;48.830;9.262;2023-12-07T03:41:52;2.23;;;2.13;;
7759;SDS011;3924;48.830;9.262;2023-12-07T03:44:19;2.93;;;2.57;;
7759;SDS011;3924;48.830;9.262;2023-12-07T03:46:45;2.37;;;2.10;;
7759;SDS011;3924;48.830;9.262;2023-12-07T03:49:12;2.03;;;1.80;;
7759;SDS011;3924;48.830;9.262;2023-12-07T03:51:39;4.50;;;2.70;;
7759;SDS011;3924;48.830;9.262;2023-12-07T03:54:05;2.30;;;2.13;;
7759;SDS011;3924;48.830;9.262;2023-12-07T03:56:32;4.10;;;2.70;;
7759;SDS011;3924;48.830;9.262;2023-12-07T03:58:59;3.33;;;2.77;;
7759;SDS011;3924;48.830;9.262;2023-12-07T04:01:27;4.53;;;2.03;;
7759;SDS011;3924;48.830;9.262;2023-12-07T04:03:55;2.60;;;2.40;;
7759;SDS011;3924;48.830;9.262;2023-12-07T04:06:23;2.63;;;2.43;;
7759;SDS011;3924;48.830;9.262;2023-12-07T04:08:50;2.33;;;2.13;;
7759;SDS011;3924;48.830;9.262;2023-12-07T04:11:17;3.43;;;2.43;;
7759;SDS011;3924;48.830;9.262;2023-12-07T04:13:43;3.20;;;2.93;;
7759;SDS011;3924;48.830;9.262;2023-12-07T04:16:10;2.93;;;2.63;;
7759;SDS011;3924;48.830;9.262;2023-12-07T04:18:37;2.60;;;1.90;;
7759;SDS011;3924;48.830;9.262;2023-12-07T04:21:04;4.07;;;3.23;;
7759;SDS011;3924;48.830;9.262;2023-12-07T04:23:34;3.10;;;2.70;;
7759;SDS011;3924;48.830;9.262;2023-12-07T04:26:00;2.43;;;2.33;;
7759;SDS011;3924;48.830;9.262;2023-12-07T04:28:26;7.37;;;2.30;;
7759;SDS011;3924;48.830;9.262;2023-12-07T04:30:53;2.83;;;2.57;;
7759;SDS011;3924;48.830;9.262;2023-12-07T04:33:20;4.60;;;2.93;;
7759;SDS011;3924;48.830;9.262;2023-12-07T04:35:47;2.93;;;2.30;;
7759;SDS011;3924;48.830;9.262;2023-12-07T04:38:13;2.27;;;2.07;;
7759;SDS011;3924;48.830;9.262;2023-12-07T04:40:40;2.43;;;2.07;;
7759;SDS011;3924;48.830;9.262;2023-12-07T04:43:08;2.60;;;2.37;;
7759;SDS011;3924;48.830;9.262;2023-12-07T04:45:35;2.40;;;2.20;;
7759;SDS011;3924;48.830;9.262;2023-12-07T04:48:02;2.30;;;2.20;;
7759;SDS011;3924;48.830;9.262;2023-12-07T04:50:30;4.03;;;2.90;;
7759;SDS011;3924;48.830;9.262;2023-12-07T04:52:56;2.93;;;1.97;;
7759;SDS011;3924;48.830;9.262;2023-12-07T04:55:23;23.97;;;2.33;;
7759;SDS011;3924;48.830;9.262;2023-12-07T04:57:50;3.53;;;1.43;;
7759;SDS011;3924;48.830;9.262;2023-12-07T05:00:17;2.60;;;2.40;;
7759;SDS011;3924;48.830;9.262;2023-12-07T05:02:44;7.03;;;2.83;;
7759;SDS011;3924;48.830;9.262;2023-12-07T05:05:10;5.13;;;2.70;;
7759;SDS011;3924;48.830;9.262;2023-12-07T05:07:37;3.30;;;2.50;;
7759;SDS011;3924;48.830;9.262;2023-12-07T05:10:04;2.60;;;2.40;;
7759;SDS011;3924;48.830;9.262;2023-12-07T05:12:31;4.23;;;1.93;;
7759;SDS011;3924;48.830;9.262;2023-12-07T05:14:57;2.20;;;2.00;;
7759;SDS011;3924;48.830;9.262;2023-12-07T05:17:24;2.47;;;2.27;;
7759;SDS011;3924;48.830;9.262;2023-12-07T05:19:50;4.97;;;2.93;;
7759;SDS011;3924;48.830;9.262;2023-12-07T05:22:17;5.73;;;2.57;;
7759;SDS011;3924;48.830;9.262;2023-12-07T05:24:44;5.17;;;2.03;;
7759;SDS011;3924;48.830;9.262;2023-12-07T05:27:10;7.40;;;4.17;;
7759;SDS011;3924;48.830;9.262;2023-12-07T05:29:37;5.20;;;3.53;;
7759;SDS011;3924;48.830;9.262;2023-12-07T05:32:05;3.53;;;3.03;;
7759;SDS011;3924;48.830;9.262;2023-12-07T05:34:32;3.00;;;2.63;;
7759;SDS011;3924;48.830;9.262;2023-12-07T05:37:00;4.30;;;3.90;;
7759;SDS011;3924;48.830;9.262;2023-12-07T05:39:26;12.03;;;4.60;;
7759;SDS011;3924;48.830;9.262;2023-12-07T05:41:53;7.50;;;3.80;;
7759;SDS011;3924;48.830;9.262;2023-12-07T05:44:19;6.07;;;4.03;;
7759;SDS011;3924;48.830;9.262;2023-12-07T05:46:48;4.07;;;3.27;;
7759;SDS011;3924;48.830;9.262;2023-12-07T05:49:15;2.73;;;2.50;;
7759;SDS011;3924;48.830;9.262;2023-12-07T05:51:42;4.03;;;3.70;;
7759;SDS011;3924;48.830;9.262;2023-12-07T05:54:09;7.47;;;3.90;;
7759;SDS011;3924;48.830;9.262;2023-12-07T05:56:35;5.13;;;3.97;;
7759;SDS011;3924;48.830;9.262;2023-12-07T05:59:02;3.33;;;3.07;;
7759;SDS011;3924;48.830;9.262;2023-12-07T06:01:28;4.63;;;3.80;;
7759;SDS011;3924;48.830;9.262;2023-12-07T06:03:55;6.90;;;3.70;;
7759;SDS011;3924;48.830;9.262;2023-12-07T06:06:22;2.13;;;2.03;;
7759;SDS011;3924;48.830;9.262;2023-12-07T06:08:48;3.70;;;3.17;;
7759;SDS011;3924;48.830;9.262;2023-12-07T06:11:15;4.07;;;3.77;;
7759;SDS011;3924;48.830;9.262;2023-12-07T06:13:41;3.60;;;3.30;;
7759;SDS011;3924;48.830;9.262;2023-12-07T06:16:11;7.23;;;3.60;;
7759;SDS011;3924;48.830;9.262;2023-12-07T06:18:39;4.53;;;3.97;;
7759;SDS011;3924;48.830;9.262;2023-12-07T06:21:05;7.87;;;5.13;;
7759;SDS011;3924;48.830;9.262;2023-12-07T06:23:32;9.77;;;4.90;;
7759;SDS011;3924;48.830;9.262;2023-12-07T06:26:00;10.73;;;6.67;;
7759;SDS011;3924;48.830;9.262;2023-12-07T06:28:28;12.03;;;7.90;;
7759;SDS011;3924;48.830;9.262;2023-12-07T06:30:54;11.07;;;6.43;;
7759;SDS011;3924;48.830;9.262;2023-12-07T06:33:23;13.10;;;7.60;;
7759;SDS011;3924;48.830;9.262;2023-12-07T06:35:49;13.77;;;8.97;;
7759;SDS011;3924;48.830;9.262;2023-12-07T06:38:16;13.40;;;8.17;;
7759;SDS011;3924;48.830;9.262;2023-12-07T06:40:45;15.80;;;6.73;;
7759;SDS011;3924;48.830;9.262;2023-12-07T06:43:12;14.17;;;8.27;;
7759;SDS011;3924;48.830;9.262;2023-12-07T06:45:38;11.90;;;6.03;;
7759;SDS011;3924;48.830;9.262;2023-12-07T06:48:05;9.97;;;6.97;;
7759;SDS011;3924;48.830;9.262;2023-12-07T06:50:32;9.23;;;6.03;;
7759;SDS011;3924;48.830;9.262;2023-12-07T06:52:59;6.73;;;5.80;;
7759;SDS011;3924;48.830;9.262;2023-12-07T06:55:26;8.10;;;6.73;;
7759;SDS011;3924;48.830;9.262;2023-12-07T06:57:52;4.87;;;4.07;;
7759;SDS011;3924;48.830;9.262;2023-12-07T07:00:19;9.07;;;3.57;;
7759;SDS011;3924;48.830;9.262;2023-12-07T07:02:46;5.43;;;4.07;;
7759;SDS011;3924;48.830;9.262;2023-12-07T07:05:13;6.63;;;4.57;;
7759;SDS011;3924;48.830;9.262;2023-12-07T07:07:39;4.70;;;3.40;;
7759;SDS011;3924;48.830;9.262;2023-12-07T07:10:07;4.13;;;3.33;;
7759;SDS011;3924;48.830;9.262;2023-12-07T07:12:36;2.33;;;2.13;;
7759;SDS011;3924;48.830;9.262;2023-12-07T07:15:02;4.60;;;3.47;;
7759;SDS011;3924;48.830;9.262;2023-12-07T07:17:29;6.53;;;4.27;;
7759;SDS011;3924;48.830;9.262;2023-12-07T07:19:56;4.43;;;4.03;;
7759;SDS011;3924;48.830;9.262;2023-12-07T07:22:22;4.97;;;3.17;;
7759;SDS011;3924;48.830;9.262;2023-12-07T07:24:48;2.80;;;2.60;;
7759;SDS011;3924;48.830;9.262;2023-12-07T07:27:15;5.30;;;3.33;;
7759;SDS011;3924;48.830;9.262;2023-12-07T07:29:42;2.23;;;2.03;;
7759;SDS011;3924;48.830;9.262;2023-12-07T07:32:09;3.80;;;3.10;;
7759;SDS011;3924;48.830;9.262;2023-12-07T07:34:36;2.03;;;1.93;;
7759;SDS011;3924;48.830;9.262;2023-12-07T07:37:03;6.30;;;2.70;;
7759;SDS011;3924;48.830;9.262;2023-12-07T07:39:30;5.40;;;3.47;;
7759;SDS011;3924;48.830;9.262;2023-12-07T07:41:57;3.67;;;2.47;;
7759;SDS011;3924;48.830;9.262;2023-12-07T07:44:24;2.07;;;1.97;;
7759;SDS011;3924;48.830;9.262;2023-12-07T07:46:50;3.00;;;2.77;;
7759;SDS011;3924;48.830;9.262;2023-12-07T07:49:17;2.17;;;1.97;;
7759;SDS011;3924;48.830;9.262;2023-12-07T07:51:43;2.00;;;1.90;;
7759;SDS011;3924;48.830;9.262;2023-12-07T07:54:10;5.20;;;2.83;;
7759;SDS011;3924;48.830;9.262;2023-12-07T07:56:36;2.43;;;2.23;;
7759;SDS011;3924;48.830;9.262;2023-12-07T07:59:03;6.03;;;2.83;;
7759;SDS011;3924;48.830;9.262;2023-12-07T08:01:29;2.17;;;1.97;;
7759;SDS011;3924;48.830;9.262;2023-12-07T08:03:56;3.90;;;2.53;;
7759;SDS011;3924;48.830;9.262;2023-12-07T08:06:23;2.50;;;2.33;;
7759;SDS011;3924;48.830;9.262;2023-12-07T08:08:49;2.50;;;2.27;;
7759;SDS011;3924;48.830;9.262;2023-12-07T08:11:16;2.63;;;2.43;;
7759;SDS011;3924;48.830;9.262;2023-12-07T08:13:43;12.90;;;4.50;;
7759;SDS011;3924;48.830;9.262;2023-12-07T08:16:09;4.43;;;3.97;;
7759;SDS011;3924;48.830;9.262;2023-12-07T08:18:36;15.50;;;5.63;;
7759;SDS011;3924;48.830;9.262;2023-12-07T08:21:04;4.47;;;3.17;;
7759;SDS011;3924;48.830;9.262;2023-12-07T08:23:30;4.43;;;3.20;;
7759;SDS011;3924;48.830;9.262;2023-12-07T08:25:57;6.40;;;3.47;;
7759;SDS011;3924;48.830;9.262;2023-12-07T08:28:23;3.10;;;2.83;;
7759;SDS011;3924;48.830;9.262;2023-12-07T08:30:50;2.77;;;2.57;;
7759;SDS011;3924;48.830;9.262;2023-12-07T08:33:16;2.60;;;2.40;;
7759;SDS011;3924;48.830;9.262;2023-12-07T08:35:43;3.23;;;2.80;;
7759;SDS011;3924;48.830;9.262;2023-12-07T08:38:09;3.17;;;2.53;;
7759;SDS011;3924;48.830;9.262;2023-12-07T08:40:36;5.43;;;3.17;;
7759;SDS011;3924;48.830;9.262;2023-12-07T08:43:03;3.63;;;3.17;;
7759;SDS011;3924;48.830;9.262;2023-12-07T08:45:30;2.80;;;2.60;;
7759;SDS011;3924;48.830;9.262;2023-12-07T08:47:57;4.00;;;3.27;;
7759;SDS011;3924;48.830;9.262;2023-12-07T08:50:24;4.47;;;2.50;;
7759;SDS011;3924;48.830;9.262;2023-12-07T08:52:50;3.57;;;3.33;;
7759;SDS011;3924;48.830;9.262;2023-12-07T08:55:25;5.00;;;2.33;;
7759;SDS011;3924;48.830;9.262;2023-12-07T08:57:52;2.70;;;2.40;;
7759;SDS011;3924;48.830;9.262;2023-12-07T09:00:19;6.20;;;3.07;;
7759;SDS011;3924;48.830;9.262;2023-12-07T09:02:50;1.63;;;1.53;;
7759;SDS011;3924;48.830;9.262;2023-12-07T09:05:18;5.37;;;2.90;;
7759;SDS011;3924;48.830;9.262;2023-12-07T09:07:44;4.00;;;3.13;;
7759;SDS011;3924;48.830;9.262;2023-12-07T09:10:11;4.90;;;3.53;;
7759;SDS011;3924;48.830;9.262;2023-12-07T09:12:38;3.17;;;2.97;;
7759;SDS011;3924;48.830;9.262;2023-12-07T09:15:05;4.17;;;3.13;;
7759;SDS011;3924;48.830;9.262;2023-12-07T09:17:37;8.87;;;2.87;;
7759;SDS011;3924;48.830;9.262;2023-12-07T09:20:06;2.43;;;1.97;;
7759;SDS011;3924;48.830;9.262;2023-12-07T09:22:39;3.63;;;2.93;;
7759;SDS011;3924;48.830;9.262;2023-12-07T09:25:15;2.80;;;2.57;;
7759;SDS011;3924;48.830;9.262;2023-12-07T09:27:43;2.63;;;2.47;;
7759;SDS011;3924;48.830;9.262;2023-12-07T09:30:10;4.70;;;2.90;;
7759;SDS011;3924;48.830;9.262;2023-12-07T09:32:41;4.17;;;3.17;;
7759;SDS011;3924;48.830;9.262;2023-12-07T09:35:10;3.47;;;2.80;;
7759;SDS011;3924;48.830;9.262;2023-12-07T09:37:48;2.33;;;2.23;;
7759;SDS011;3924;48.830;9.262;2023-12-07T09:40:18;2.40;;;2.20;;
7759;SDS011;3924;48.830;9.262;2023-12-07T09:42:47;3.40;;;3.17;;
7759;SDS011;3924;48.830;9.262;2023-12-07T09:45:15;4.77;;;2.70;;
7759;SDS011;3924;48.830;9.262;2023-12-07T09:47:48;2.53;;;2.33;;
7759;SDS011;3924;48.830;9.262;2023-12-07T09:50:17;6.10;;;3.70;;
7759;SDS011;3924;48.830;9.262;2023-12-07T09:52:44;2.30;;;2.20;;
7759;SDS011;3924;48.830;9.262;2023-12-07T09:55:22;3.13;;;2.87;;
7759;SDS011;3924;48.830;9.262;2023-12-07T09:57:49;3.33;;;3.03;;
7759;SDS011;3924;48.830;9.262;2023-12-07T10:00:16;3.63;;;2.53;;
7759;SDS011;3924;48.830;9.262;2023-12-07T10:02:44;4.83;;;2.27;;
7759;SDS011;3924;48.830;9.262;2023-12-07T10:05:12;2.47;;;2.07;;
7759;SDS011;3924;48.830;9.262;2023-12-07T10:07:40;3.40;;;2.63;;
7759;SDS011;3924;48.830;9.262;2023-12-07T10:10:08;2.47;;;2.37;;
7759;SDS011;3924;48.830;9.262;2023-12-07T10:12:44;2.50;;;2.30;;
7759;SDS011;3924;48.830;9.262;2023-12-07T10:15:13;3.40;;;3.10;;
7759;SDS011;3924;48.830;9.262;2023-12-07T10:17:48;2.33;;;2.13;;
7759;SDS011;3924;48.830;9.262;2023-12-07T10:20:19;2.40;;;2.20;;
7759;SDS011;3924;48.830;9.262;2023-12-07T10:25:30;2.50;;;2.30;;
7759;SDS011;3924;48.830;9.262;2023-12-07T10:27:58;2.60;;;2.40;;
7759;SDS011;3924;48.830;9.262;2023-12-07T10:30:25;3.00;;;2.73;;
7759;SDS011;3924;48.830;9.262;2023-12-07T10:32:53;2.43;;;2.33;;
7759;SDS011;3924;48.830;9.262;2023-12-07T10:35:19;6.33;;;2.40;;
7759;SDS011;3924;48.830;9.262;2023-12-07T10:37:46;3.00;;;2.80;;
7759;SDS011;3924;48.830;9.262;2023-12-07T10:40:13;2.77;;;2.57;;
7759;SDS011;3924;48.830;9.262;2023-12-07T10:42:41;2.13;;;2.03;;
7759;SDS011;3924;48.830;9.262;2023-12-07T10:45:10;4.53;;;2.90;;
7759;SDS011;3924;48.830;9.262;2023-12-07T10:47:42;3.47;;;3.23;;
7759;SDS011;3924;48.830;9.262;2023-12-07T10:50:10;3.73;;;3.37;;
7759;SDS011;3924;48.830;9.262;2023-12-07T10:52:48;3.63;;;3.33;;
7759;SDS011;3924;48.830;9.262;2023-12-07T10:55:23;5.77;;;3.40;;
7759;SDS011;3924;48.830;9.262;2023-12-07T10:57:56;2.63;;;2.27;;
7759;SDS011;3924;48.830;9.262;2023-12-07T11:00:26;3.87;;;2.90;;
7759;SDS011;3924;48.830;9.262;2023-12-07T11:03:09;3.00;;;2.63;;
7759;SDS011;3924;48.830;9.262;2023-12-07T11:05:37;3.47;;;3.17;;
7759;SDS011;3924;48.830;9.262;2023-12-07T11:08:08;5.23;;;3.03;;
7759;SDS011;3924;48.830;9.262;2023-12-07T11:10:45;3.67;;;3.37;;
7759;SDS011;3924;48.830;9.262;2023-12-07T11:13:18;2.50;;;2.30;;
7759;SDS011;3924;48.830;9.262;2023-12-07T11:15:50;2.90;;;2.27;;
7759;SDS011;3924;48.830;9.262;2023-12-07T11:18:17;3.40;;;3.10;;
7759;SDS011;3924;48.830;9.262;2023-12-07T11:20:46;3.73;;;3.27;;
7759;SDS011;3924;48.830;9.262;2023-12-07T11:23:17;6.60;;;3.37;;
7759;SDS011;3924;48.830;9.262;2023-12-07T11:25:47;2.93;;;2.70;;
7759;SDS011;3924;48.830;9.262;2023-12-07T11:28:16;4.77;;;2.47;;
7759;SDS011;3924;48.830;9.262;2023-12-07T11:30:46;3.23;;;3.03;;
7759;SDS011;3924;48.830;9.262;2023-12-07T11:33:14;2.63;;;2.20;;
7759;SDS011;3924;48.830;9.262;2023-12-07T11:38:35;3.70;;;3.23;;
7759;SDS011;3924;48.830;9.262;2023-12-07T11:41:02;3.90;;;2.87;;
7759;SDS011;3924;48.830;9.262;2023-12-07T11:45:59;3.07;;;2.77;;
7759;SDS011;3924;48.830;9.262;2023-12-07T11:48:26;4.43;;;2.57;;
7759;SDS011;3924;48.830;9.262;2023-12-07T11:50:54;4.53;;;2.23;;
7759;SDS011;3924;48.830;9.262;2023-12-07T11:53:26;6.20;;;2.87;;
7759;SDS011;3924;48.830;9.262;2023-12-07T11:55:56;8.83;;;3.10;;
7759;SDS011;3924;48.830;9.262;2023-12-07T11:58:27;1.80;;;1.70;;
7759;SDS011;3924;48.830;9.262;2023-12-07T12:00:55;2.03;;;1.93;;
7759;SDS011;3924;48.830;9.262;2023-12-07T12:03:24;3.33;;;2.83;;
7759;SDS011;3924;48.830;9.262;2023-12-07T12:05:51;5.00;;;1.70;;
7759;SDS011;3924;48.830;9.262;2023-12-07T12:08:19;1.87;;;1.77;;
7759;SDS011;3924;48.830;9.262;2023-12-07T12:10:46;2.67;;;2.47;;
7759;SDS011;3924;48.830;9.262;2023-12-07T12:13:16;3.67;;;2.37;;
7759;SDS011;3924;48.830;9.262;2023-12-07T12:15:42;1.50;;;1.40;;
7759;SDS011;3924;48.830;9.262;2023-12-07T12:18:09;2.27;;;2.10;;
7759;SDS011;3924;48.830;9.262;2023-12-07T12:20:35;2.10;;;1.83;;
7759;SDS011;3924;48.830;9.262;2023-12-07T12:23:02;1.77;;;1.67;;
7759;SDS011;3924;48.830;9.262;2023-12-07T12:25:29;2.20;;;1.93;;
7759;SDS011;3924;48.830;9.262;2023-12-07T12:28:03;2.27;;;1.73;;
7759;SDS011;3924;48.830;9.262;2023-12-07T12:30:32;1.80;;;1.70;;
7759;SDS011;3924;48.830;9.262;2023-12-07T12:32:59;1.70;;;1.60;;
7759;SDS011;3924;48.830;9.262;2023-12-07T12:35:26;1.57;;;1.30;;
7759;SDS011;3924;48.830;9.262;2023-12-07T12:37:53;3.80;;;2.13;;
7759;SDS011;3924;48.830;9.262;2023-12-07T12:40:22;1.83;;;1.30;;
7759;SDS011;3924;48.830;9.262;2023-12-07T12:42:50;1.57;;;1.50;;
7759;SDS011;3924;48.830;9.262;2023-12-07T12:45:22;2.53;;;1.57;;
7759;SDS011;3924;48.830;9.262;2023-12-07T12:47:49;1.40;;;1.30;;
7759;SDS011;3924;48.830;9.262;2023-12-07T12:53:07;1.70;;;1.60;;
7759;SDS011;3924;48.830;9.262;2023-12-07T12:55:37;1.53;;;1.43;;
7759;SDS011;3924;48.830;9.262;2023-12-07T12:58:09;3.93;;;1.60;;
7759;SDS011;3924;48.830;9.262;2023-12-07T13:00:39;1.83;;;1.23;;
7759;SDS011;3924;48.830;9.262;2023-12-07T13:03:07;2.00;;;1.57;;
7759;SDS011;3924;48.830;9.262;2023-12-07T13:05:33;1.47;;;1.37;;
7759;SDS011;3924;48.830;9.262;2023-12-07T13:08:01;1.27;;;1.17;;
7759;SDS011;3924;48.830;9.262;2023-12-07T13:10:40;5.07;;;2.00;;
7759;SDS011;3924;48.830;9.262;2023-12-07T13:13:07;10.43;;;1.47;;
7759;SDS011;3924;48.830;9.262;2023-12-07T13:15:34;1.27;;;1.13;;
7759;SDS011;3924;48.830;9.262;2023-12-07T13:18:01;3.03;;;1.67;;
7759;SDS011;3924;48.830;9.262;2023-12-07T13:20:32;1.40;;;1.33;;
7759;SDS011;3924;48.830;9.262;2023-12-07T13:23:18;1.60;;;1.50;;
7759;SDS011;3924;48.830;9.262;2023-12-07T13:25:44;1.37;;;1.37;;
7759;SDS011;3924;48.830;9.262;2023-12-07T13:28:11;0.97;;;0.97;;
7759;SDS011;3924;48.830;9.262;2023-12-07T13:30:38;0.80;;;0.80;;
7759;SDS011;3924;48.830;9.262;2023-12-07T13:33:05;5.90;;;1.30;;
7759;SDS011;3924;48.830;9.262;2023-12-07T13:35:50;4.00;;;1.55;;
7759;SDS011;3924;48.830;9.262;2023-12-07T13:38:20;1.73;;;1.63;;
7759;SDS011;3924;48.830;9.262;2023-12-07T13:40:47;1.27;;;1.13;;
7759;SDS011;3924;48.830;9.262;2023-12-07T13:43:15;2.43;;;1.83;;
7759;SDS011;3924;48.830;9.262;2023-12-07T13:45:44;1.57;;;1.47;;
7759;SDS011;3924;48.830;9.262;2023-12-07T13:48:10;14.90;;;2.00;;
7759;SDS011;3924;48.830;9.262;2023-12-07T13:50:39;3.47;;;1.70;;
7759;SDS011;3924;48.830;9.262;2023-12-07T13:53:06;1.17;;;1.17;;
7759;SDS011;3924;48.830;9.262;2023-12-07T13:55:36;0.90;;;0.90;;
7759;SDS011;3924;48.830;9.262;2023-12-07T13:58:03;1.03;;;1.03;;
7759;SDS011;3924;48.830;9.262;2023-12-07T14:00:30;1.00;;;1.00;;
7759;SDS011;3924;48.830;9.262;2023-12-07T14:02:58;2.00;;;1.90;;
7759;SDS011;3924;48.830;9.262;2023-12-07T14:05:25;3.50;;;1.87;;
7759;SDS011;3924;48.830;9.262;2023-12-07T14:07:51;4.43;;;0.90;;
7759;SDS011;3924;48.830;9.262;2023-12-07T14:10:18;3.90;;;1.47;;
7759;SDS011;3924;48.830;9.262;2023-12-07T14:12:44;1.00;;;1.00;;
7759;SDS011;3924;48.830;9.262;2023-12-07T14:15:11;1.20;;;1.13;;
7759;SDS011;3924;48.830;9.262;2023-12-07T14:17:37;1.03;;;1.03;;
7759;SDS011;3924;48.830;9.262;2023-12-07T14:20:18;2.07;;;1.47;;
7759;SDS011;3924;48.830;9.262;2023-12-07T14:23:07;0.87;;;0.87;;
7759;SDS011;3924;48.830;9.262;2023-12-07T14:25:33;0.60;;;0.60;;
7759;SDS011;3924;48.830;9.262;2023-12-07T14:28:00;2.23;;;1.13;;
7759;SDS011;3924;48.830;9.262;2023-12-07T14:30:27;1.00;;;1.00;;
7759;SDS011;3924;48.830;9.262;2023-12-07T14:32:53;0.70;;;0.70;;
7759;SDS011;3924;48.830;9.262;2023-12-07T14:35:20;0.90;;;0.90;;
7759;SDS011;3924;48.830;9.262;2023-12-07T14:37:47;0.80;;;0.80;;
7759;SDS011;3924;48.830;9.262;2023-12-07T14:40:16;0.73;;;0.73;;
7759;SDS011;3924;48.830;9.262;2023-12-07T14:42:43;1.60;;;1.03;;
7759;SDS011;3924;48.830;9.262;2023-12-07T14:45:11;0.90;;;0.90;;
7759;SDS011;3924;48.830;9.262;2023-12-07T14:47:38;1.85;;;1.35;;
7759;SDS011;3924;48.830;9.262;2023-12-07T14:50:05;1.30;;;1.30;;
7759;SDS011;3924;48.830;9.262;2023-12-07T14:52:32;1.37;;;1.27;;
7759;SDS011;3924;48.830;9.262;2023-12-07T14:54:58;1.20;;;1.10;;
7759;SDS011;3924;48.830;9.262;2023-12-07T14:57:25;1.03;;;1.00;;
7759;SDS011;3924;48.830;9.262;2023-12-07T14:59:52;1.23;;;1.03;;
7759;SDS011;3924;48.830;9.262;2023-12-07T15:02:20;1.93;;;0.90;;
7759;SDS011;3924;48.830;9.262;2023-12-07T15:04:47;0.87;;;0.87;;
7759;SDS011;3924;48.830;9.262;2023-12-07T15:07:15;1.10;;;1.10;;
7759;SDS011;3924;48.830;9.262;2023-12-07T15:09:43;0.80;;;0.80;;
7759;SDS011;3924;48.830;9.262;2023-12-07T15:12:09;1.40;;;1.33;;
7759;SDS011;3924;48.830;9.262;2023-12-07T15:14:36;0.70;;;0.70;;
7759;SDS011;3924;48.830;9.262;2023-12-07T15:17:05;2.17;;;1.23;;
7759;SDS011;3924;48.830;9.262;2023-12-07T15:19:34;1.77;;;1.67;;
7759;SDS011;3924;48.830;9.262;2023-12-07T15:22:02;2.97;;;1.40;;
7759;SDS011;3924;48.830;9.262;2023-12-07T15:24:29;1.13;;;1.13;;
7759;SDS011;3924;48.830;9.262;2023-12-07T15:27:02;1.00;;;1.00;;
7759;SDS011;3924;48.830;9.262;2023-12-07T15:29:33;0.90;;;0.90;;
7759;SDS011;3924;48.830;9.262;2023-12-07T15:32:08;15.13;;;1.23;;